sensor_id;sensor_type;location;lat;lon;timestamp;pressure;altitude;pressure_sealevel;temperature;humidity
62600;BME280;48671;48.922;2.346;2023-06-22T00:02:15;101455.59;;;27.87;44.78
62600;BME280;48671;48.922;2.346;2023-06-22T00:04:40;101454.75;;;27.86;44.04
62600;BME280;48671;48.922;2.346;2023-06-22T00:07:06;101450.03;;;27.80;44.32
62600;BME280;48671;48.922;2.346;2023-06-22T00:09:31;101461.59;;;27.89;44.56
62600;BME280;48671;48.922;2.346;2023-06-22T00:11:57;101459.78;;;27.89;44.36
62600;BME280;48671;48.922;2.346;2023-06-22T00:14:22;101463.31;;;27.90;44.12
62600;BME280;48671;48.922;2.346;2023-06-22T00:16:48;101461.00;;;27.95;43.99
62600;BME280;48671;48.922;2.346;2023-06-22T00:19:15;101458.53;;;28.01;44.22
62600;BME280;48671;48.922;2.346;2023-06-22T00:21:40;101459.03;;;27.97;44.25
62600;BME280;48671;48.922;2.346;2023-06-22T00:24:06;101448.94;;;27.91;44.13
62600;BME280;48671;48.922;2.346;2023-06-22T00:26:31;101461.16;;;27.93;43.99
62600;BME280;48671;48.922;2.346;2023-06-22T00:28:57;101448.97;;;27.99;44.24
62600;BME280;48671;48.922;2.346;2023-06-22T00:31:22;101440.13;;;27.98;43.74
62600;BME280;48671;48.922;2.346;2023-06-22T00:33:47;101436.78;;;27.96;43.64
62600;BME280;48671;48.922;2.346;2023-06-22T00:36:15;101424.56;;;27.94;43.89
62600;BME280;48671;48.922;2.346;2023-06-22T00:38:41;101415.00;;;27.91;44.05
62600;BME280;48671;48.922;2.346;2023-06-22T00:41:07;101420.00;;;27.86;44.00
62600;BME280;48671;48.922;2.346;2023-06-22T00:43:32;101421.66;;;27.87;43.86
62600;BME280;48671;48.922;2.346;2023-06-22T00:45:58;101421.66;;;27.87;44.19
62600;BME280;48671;48.922;2.346;2023-06-22T00:48:23;101415.84;;;27.74;44.33
62600;BME280;48671;48.922;2.346;2023-06-22T00:50:49;101417.28;;;27.68;44.52
62600;BME280;48671;48.922;2.346;2023-06-22T00:53:16;101417.91;;;27.62;44.59
62600;BME280;48671;48.922;2.346;2023-06-22T00:55:44;101415.09;;;27.64;44.82
62600;BME280;48671;48.922;2.346;2023-06-22T00:58:11;101410.44;;;27.48;44.88
62600;BME280;48671;48.922;2.346;2023-06-22T01:00:39;101408.66;;;27.39;44.60
62600;BME280;48671;48.922;2.346;2023-06-22T01:03:04;101415.69;;;27.40;44.38
62600;BME280;48671;48.922;2.346;2023-06-22T01:05:34;101413.84;;;27.40;44.69
62600;BME280;48671;48.922;2.346;2023-06-22T01:08:20;101410.75;;;27.45;44.63
62600;BME280;48671;48.922;2.346;2023-06-22T01:10:55;101417.69;;;27.38;44.15
62600;BME280;48671;48.922;2.346;2023-06-22T01:13:35;101412.63;;;27.17;45.78
62600;BME280;48671;48.922;2.346;2023-06-22T01:16:10;101405.44;;;27.17;44.74
62600;BME280;48671;48.922;2.346;2023-06-22T01:18:42;101398.13;;;27.19;44.84
62600;BME280;48671;48.922;2.346;2023-06-22T01:21:12;101394.44;;;27.20;45.14
62600;BME280;48671;48.922;2.346;2023-06-22T01:23:51;101383.38;;;27.15;44.96
62600;BME280;48671;48.922;2.346;2023-06-22T01:28:46;101392.78;;;27.19;45.11
62600;BME280;48671;48.922;2.346;2023-06-22T01:31:18;101392.31;;;27.24;45.50
62600;BME280;48671;48.922;2.346;2023-06-22T01:33:48;101386.53;;;27.28;44.93
62600;BME280;48671;48.922;2.346;2023-06-22T01:36:16;101390.56;;;27.33;44.51
62600;BME280;48671;48.922;2.346;2023-06-22T01:38:43;101370.84;;;27.34;44.67
62600;BME280;48671;48.922;2.346;2023-06-22T01:41:10;101371.94;;;27.41;44.84
62600;BME280;48671;48.922;2.346;2023-06-22T01:43:36;101363.53;;;27.36;45.15
62600;BME280;48671;48.922;2.346;2023-06-22T01:46:02;101360.88;;;27.36;44.32
62600;BME280;48671;48.922;2.346;2023-06-22T01:48:28;101364.25;;;27.38;45.03
62600;BME280;48671;48.922;2.346;2023-06-22T01:50:54;101356.31;;;27.28;44.61
62600;BME280;48671;48.922;2.346;2023-06-22T01:53:24;101361.13;;;27.24;45.04
62600;BME280;48671;48.922;2.346;2023-06-22T01:55:49;101351.41;;;27.23;44.50
62600;BME280;48671;48.922;2.346;2023-06-22T01:58:15;101349.91;;;27.21;44.37
62600;BME280;48671;48.922;2.346;2023-06-22T02:00:46;101353.09;;;27.24;44.83
62600;BME280;48671;48.922;2.346;2023-06-22T02:03:19;101347.22;;;27.21;44.65
62600;BME280;48671;48.922;2.346;2023-06-22T02:05:50;101353.41;;;27.21;44.59
62600;BME280;48671;48.922;2.346;2023-06-22T02:08:24;101355.13;;;27.13;44.66
62600;BME280;48671;48.922;2.346;2023-06-22T02:10:51;101356.81;;;27.14;45.27
62600;BME280;48671;48.922;2.346;2023-06-22T02:13:18;101345.19;;;27.05;44.60
62600;BME280;48671;48.922;2.346;2023-06-22T02:15:43;101342.53;;;27.05;45.20
62600;BME280;48671;48.922;2.346;2023-06-22T02:18:10;101352.38;;;27.04;44.83
62600;BME280;48671;48.922;2.346;2023-06-22T02:20:38;101352.50;;;27.03;44.41
62600;BME280;48671;48.922;2.346;2023-06-22T02:23:05;101355.66;;;26.98;44.56
62600;BME280;48671;48.922;2.346;2023-06-22T02:25:31;101347.81;;;26.87;45.05
62600;BME280;48671;48.922;2.346;2023-06-22T02:27:57;101356.25;;;26.92;44.89
62600;BME280;48671;48.922;2.346;2023-06-22T02:30:22;101348.38;;;26.91;45.11
62600;BME280;48671;48.922;2.346;2023-06-22T02:32:47;101353.63;;;26.82;44.68
62600;BME280;48671;48.922;2.346;2023-06-22T02:35:12;101352.69;;;26.74;45.00
62600;BME280;48671;48.922;2.346;2023-06-22T02:37:38;101352.31;;;26.69;45.44
62600;BME280;48671;48.922;2.346;2023-06-22T02:40:07;101350.78;;;26.66;45.28
62600;BME280;48671;48.922;2.346;2023-06-22T02:42:34;101350.22;;;26.63;45.35
62600;BME280;48671;48.922;2.346;2023-06-22T02:44:59;101338.31;;;26.57;45.35
62600;BME280;48671;48.922;2.346;2023-06-22T02:47:25;101332.53;;;26.61;45.44
62600;BME280;48671;48.922;2.346;2023-06-22T02:49:51;101333.63;;;26.69;45.01
62600;BME280;48671;48.922;2.346;2023-06-22T02:52:16;101335.00;;;26.73;45.79
62600;BME280;48671;48.922;2.346;2023-06-22T02:54:41;101337.25;;;26.68;45.10
62600;BME280;48671;48.922;2.346;2023-06-22T02:57:07;101341.19;;;26.73;45.21
62600;BME280;48671;48.922;2.346;2023-06-22T02:59:38;101339.50;;;26.72;45.03
62600;BME280;48671;48.922;2.346;2023-06-22T03:02:06;101341.88;;;26.75;45.38
62600;BME280;48671;48.922;2.346;2023-06-22T03:04:31;101346.81;;;26.70;45.35
62600;BME280;48671;48.922;2.346;2023-06-22T03:06:56;101348.41;;;26.63;45.82
62600;BME280;48671;48.922;2.346;2023-06-22T03:09:26;101343.91;;;26.64;45.04
62600;BME280;48671;48.922;2.346;2023-06-22T03:11:52;101343.78;;;26.65;44.96
62600;BME280;48671;48.922;2.346;2023-06-22T03:14:18;101335.31;;;26.70;45.55
62600;BME280;48671;48.922;2.346;2023-06-22T03:16:43;101322.78;;;26.70;45.20
62600;BME280;48671;48.922;2.346;2023-06-22T03:19:08;101323.91;;;26.68;45.43
62600;BME280;48671;48.922;2.346;2023-06-22T03:21:34;101310.19;;;26.63;45.19
62600;BME280;48671;48.922;2.346;2023-06-22T03:23:59;101302.44;;;26.69;45.38
62600;BME280;48671;48.922;2.346;2023-06-22T03:26:24;101298.00;;;26.60;45.13
62600;BME280;48671;48.922;2.346;2023-06-22T03:28:52;101298.81;;;26.60;45.13
62600;BME280;48671;48.922;2.346;2023-06-22T03:31:17;101293.53;;;26.51;45.55
62600;BME280;48671;48.922;2.346;2023-06-22T03:33:46;101299.31;;;26.46;45.36
62600;BME280;48671;48.922;2.346;2023-06-22T03:36:11;101297.34;;;26.48;45.61
62600;BME280;48671;48.922;2.346;2023-06-22T03:38:37;101301.41;;;26.52;45.27
62600;BME280;48671;48.922;2.346;2023-06-22T03:41:03;101306.13;;;26.58;45.36
62600;BME280;48671;48.922;2.346;2023-06-22T03:43:28;101300.53;;;26.52;45.55
62600;BME280;48671;48.922;2.346;2023-06-22T03:45:53;101301.13;;;26.55;45.87
62600;BME280;48671;48.922;2.346;2023-06-22T03:48:19;101300.41;;;26.53;46.00
62600;BME280;48671;48.922;2.346;2023-06-22T03:50:44;101295.44;;;26.58;46.18
62600;BME280;48671;48.922;2.346;2023-06-22T03:53:09;101292.66;;;26.60;46.22
62600;BME280;48671;48.922;2.346;2023-06-22T03:55:36;101293.19;;;26.64;46.09
62600;BME280;48671;48.922;2.346;2023-06-22T03:58:01;101294.91;;;26.55;46.83
62600;BME280;48671;48.922;2.346;2023-06-22T04:00:33;101292.66;;;26.60;46.23
62600;BME280;48671;48.922;2.346;2023-06-22T04:02:59;101286.22;;;26.53;45.94
62600;BME280;48671;48.922;2.346;2023-06-22T04:05:24;101300.66;;;26.60;45.89
62600;BME280;48671;48.922;2.346;2023-06-22T04:07:49;101297.28;;;26.58;46.07
62600;BME280;48671;48.922;2.346;2023-06-22T04:10:15;101293.69;;;26.49;46.23
62600;BME280;48671;48.922;2.346;2023-06-22T04:12:40;101297.59;;;26.45;46.47
62600;BME280;48671;48.922;2.346;2023-06-22T04:15:06;101291.44;;;26.45;46.00
62600;BME280;48671;48.922;2.346;2023-06-22T04:17:31;101300.88;;;26.39;46.21
62600;BME280;48671;48.922;2.346;2023-06-22T04:19:56;101301.59;;;26.31;46.47
62600;BME280;48671;48.922;2.346;2023-06-22T04:22:22;101301.59;;;26.31;46.21
62600;BME280;48671;48.922;2.346;2023-06-22T04:24:47;101299.78;;;26.32;46.89
62600;BME280;48671;48.922;2.346;2023-06-22T04:27:12;101290.50;;;26.36;46.59
62600;BME280;48671;48.922;2.346;2023-06-22T04:29:38;101299.47;;;26.35;46.17
62600;BME280;48671;48.922;2.346;2023-06-22T04:32:08;101296.69;;;26.36;46.93
62600;BME280;48671;48.922;2.346;2023-06-22T04:34:34;101298.06;;;26.41;46.76
62600;BME280;48671;48.922;2.346;2023-06-22T04:36:59;101300.97;;;26.47;46.41
62600;BME280;48671;48.922;2.346;2023-06-22T04:39:24;101303.22;;;26.42;47.12
62600;BME280;48671;48.922;2.346;2023-06-22T04:41:52;101290.06;;;26.41;48.06
62600;BME280;48671;48.922;2.346;2023-06-22T04:44:18;101303.78;;;26.55;48.23
62600;BME280;48671;48.922;2.346;2023-06-22T04:46:50;101291.13;;;26.57;47.96
62600;BME280;48671;48.922;2.346;2023-06-22T04:49:20;101299.81;;;26.59;48.05
62600;BME280;48671;48.922;2.346;2023-06-22T04:51:45;101301.91;;;26.66;48.47
62600;BME280;48671;48.922;2.346;2023-06-22T04:54:11;101300.19;;;26.65;47.03
62600;BME280;48671;48.922;2.346;2023-06-22T04:56:37;101294.38;;;26.51;48.02
62600;BME280;48671;48.922;2.346;2023-06-22T04:59:02;101298.59;;;26.54;48.87
62600;BME280;48671;48.922;2.346;2023-06-22T05:01:30;101297.03;;;26.51;48.51
62600;BME280;48671;48.922;2.346;2023-06-22T05:03:57;101291.19;;;26.38;48.94
62600;BME280;48671;48.922;2.346;2023-06-22T05:06:24;101295.63;;;26.47;49.31
62600;BME280;48671;48.922;2.346;2023-06-22T05:08:56;101303.94;;;26.44;49.53
62600;BME280;48671;48.922;2.346;2023-06-22T05:11:28;101309.63;;;26.31;50.06
62600;BME280;48671;48.922;2.346;2023-06-22T05:13:53;101291.72;;;26.14;49.97
62600;BME280;48671;48.922;2.346;2023-06-22T05:16:20;101302.94;;;26.18;49.79
62600;BME280;48671;48.922;2.346;2023-06-22T05:18:52;101322.75;;;26.15;50.46
62600;BME280;48671;48.922;2.346;2023-06-22T05:21:25;101315.31;;;26.09;50.68
62600;BME280;48671;48.922;2.346;2023-06-22T05:23:52;101312.97;;;25.96;51.54
62600;BME280;48671;48.922;2.346;2023-06-22T05:26:19;101320.88;;;25.88;52.40
62600;BME280;48671;48.922;2.346;2023-06-22T05:28:45;101312.59;;;25.81;52.07
62600;BME280;48671;48.922;2.346;2023-06-22T05:31:14;101314.00;;;25.85;52.08
62600;BME280;48671;48.922;2.346;2023-06-22T05:33:41;101301.66;;;25.84;52.55
62600;BME280;48671;48.922;2.346;2023-06-22T05:36:06;101299.25;;;25.91;52.35
62600;BME280;48671;48.922;2.346;2023-06-22T05:38:32;101284.66;;;25.85;53.05
62600;BME280;48671;48.922;2.346;2023-06-22T05:40:58;101293.78;;;25.83;53.01
62600;BME280;48671;48.922;2.346;2023-06-22T05:43:23;101287.88;;;25.79;53.31
62600;BME280;48671;48.922;2.346;2023-06-22T05:45:48;101288.72;;;25.80;53.70
62600;BME280;48671;48.922;2.346;2023-06-22T05:48:13;101274.84;;;25.66;54.33
62600;BME280;48671;48.922;2.346;2023-06-22T05:50:39;101292.94;;;25.73;54.26
62600;BME280;48671;48.922;2.346;2023-06-22T05:53:04;101292.13;;;25.62;53.87
62600;BME280;48671;48.922;2.346;2023-06-22T05:55:32;101292.41;;;25.59;54.40
62600;BME280;48671;48.922;2.346;2023-06-22T05:57:57;101285.97;;;25.52;54.30
62600;BME280;48671;48.922;2.346;2023-06-22T06:00:22;101285.16;;;25.52;53.13
62600;BME280;48671;48.922;2.346;2023-06-22T06:02:48;101287.09;;;25.40;54.33
62600;BME280;48671;48.922;2.346;2023-06-22T06:05:14;101293.00;;;25.34;55.63
62600;BME280;48671;48.922;2.346;2023-06-22T06:07:40;101286.72;;;25.35;56.27
62600;BME280;48671;48.922;2.346;2023-06-22T06:10:06;101280.25;;;25.28;55.52
62600;BME280;48671;48.922;2.346;2023-06-22T06:12:32;101294.41;;;25.38;56.39
62600;BME280;48671;48.922;2.346;2023-06-22T06:14:57;101284.88;;;25.35;55.22
62600;BME280;48671;48.922;2.346;2023-06-22T06:17:22;101294.00;;;25.23;57.06
62600;BME280;48671;48.922;2.346;2023-06-22T06:19:48;101285.88;;;25.15;57.50
62600;BME280;48671;48.922;2.346;2023-06-22T06:22:13;101293.56;;;25.08;57.09
62600;BME280;48671;48.922;2.346;2023-06-22T06:24:38;101282.19;;;24.96;56.75
62600;BME280;48671;48.922;2.346;2023-06-22T06:27:04;101296.78;;;25.02;58.80
62600;BME280;48671;48.922;2.346;2023-06-22T06:29:30;101294.94;;;25.03;57.49
62600;BME280;48671;48.922;2.346;2023-06-22T06:31:55;101304.31;;;25.07;57.89
62600;BME280;48671;48.922;2.346;2023-06-22T06:34:21;101300.66;;;24.98;57.29
62600;BME280;48671;48.922;2.346;2023-06-22T06:36:47;101303.06;;;25.01;58.44
62600;BME280;48671;48.922;2.346;2023-06-22T06:39:12;101306.41;;;24.93;57.09
62600;BME280;48671;48.922;2.346;2023-06-22T06:41:38;101302.09;;;24.92;57.91
62600;BME280;48671;48.922;2.346;2023-06-22T06:44:03;101311.03;;;25.01;57.33
62600;BME280;48671;48.922;2.346;2023-06-22T06:46:29;101303.78;;;25.03;57.61
62600;BME280;48671;48.922;2.346;2023-06-22T06:48:54;101298.59;;;25.02;57.74
62600;BME280;48671;48.922;2.346;2023-06-22T06:51:19;101297.59;;;25.03;58.46
62600;BME280;48671;48.922;2.346;2023-06-22T06:53:44;101287.06;;;24.91;58.22
62600;BME280;48671;48.922;2.346;2023-06-22T06:56:10;101293.94;;;24.84;58.39
62600;BME280;48671;48.922;2.346;2023-06-22T06:58:35;101293.25;;;24.82;58.05
62600;BME280;48671;48.922;2.346;2023-06-22T07:01:01;101294.63;;;24.76;58.96
62600;BME280;48671;48.922;2.346;2023-06-22T07:03:28;101292.34;;;24.62;59.12
62600;BME280;48671;48.922;2.346;2023-06-22T07:05:53;101290.56;;;24.63;60.07
62600;BME280;48671;48.922;2.346;2023-06-22T07:08:18;101286.34;;;24.60;59.51
62600;BME280;48671;48.922;2.346;2023-06-22T07:10:44;101281.56;;;24.54;59.33
62600;BME280;48671;48.922;2.346;2023-06-22T07:13:09;101283.91;;;24.47;59.17
62600;BME280;48671;48.922;2.346;2023-06-22T07:15:34;101281.06;;;24.39;59.65
62600;BME280;48671;48.922;2.346;2023-06-22T07:18:00;101274.03;;;24.28;60.70
62600;BME280;48671;48.922;2.346;2023-06-22T07:20:25;101277.22;;;24.22;60.07
62600;BME280;48671;48.922;2.346;2023-06-22T07:22:51;101273.72;;;24.22;61.80
62600;BME280;48671;48.922;2.346;2023-06-22T07:25:16;101278.19;;;24.21;61.48
62600;BME280;48671;48.922;2.346;2023-06-22T07:27:56;101282.16;;;24.27;62.40
62600;BME280;48671;48.922;2.346;2023-06-22T07:30:22;101277.38;;;24.21;61.60
62600;BME280;48671;48.922;2.346;2023-06-22T07:32:47;101273.13;;;24.09;61.81
62600;BME280;48671;48.922;2.346;2023-06-22T07:35:12;101276.56;;;23.99;61.91
62600;BME280;48671;48.922;2.346;2023-06-22T07:37:38;101272.03;;;23.90;62.28
62600;BME280;48671;48.922;2.346;2023-06-22T07:40:03;101265.63;;;23.93;61.62
62600;BME280;48671;48.922;2.346;2023-06-22T07:42:31;101267.00;;;23.87;61.82
62600;BME280;48671;48.922;2.346;2023-06-22T07:44:58;101252.81;;;23.77;62.65
62600;BME280;48671;48.922;2.346;2023-06-22T07:47:23;101266.81;;;23.79;62.94
62600;BME280;48671;48.922;2.346;2023-06-22T07:49:51;101267.91;;;23.76;63.22
62600;BME280;48671;48.922;2.346;2023-06-22T07:52:16;101267.47;;;23.71;63.37
62600;BME280;48671;48.922;2.346;2023-06-22T07:54:42;101265.09;;;23.68;63.25
62600;BME280;48671;48.922;2.346;2023-06-22T07:57:07;101267.00;;;23.66;63.83
62600;BME280;48671;48.922;2.346;2023-06-22T07:59:32;101271.25;;;23.69;63.92
62600;BME280;48671;48.922;2.346;2023-06-22T08:01:58;101282.44;;;23.72;63.19
62600;BME280;48671;48.922;2.346;2023-06-22T08:04:23;101272.31;;;23.66;64.39
62600;BME280;48671;48.922;2.346;2023-06-22T08:06:48;101272.19;;;23.68;63.46
62600;BME280;48671;48.922;2.346;2023-06-22T08:09:14;101270.06;;;23.62;64.04
62600;BME280;48671;48.922;2.346;2023-06-22T08:11:40;101283.59;;;23.58;63.93
62600;BME280;48671;48.922;2.346;2023-06-22T08:14:05;101279.84;;;23.61;64.18
62600;BME280;48671;48.922;2.346;2023-06-22T08:16:30;101280.69;;;23.62;64.26
62600;BME280;48671;48.922;2.346;2023-06-22T08:18:56;101286.81;;;23.62;65.20
62600;BME280;48671;48.922;2.346;2023-06-22T08:21:21;101285.16;;;23.61;65.16
62600;BME280;48671;48.922;2.346;2023-06-22T08:23:47;101289.00;;;23.68;64.75
62600;BME280;48671;48.922;2.346;2023-06-22T08:26:14;101283.16;;;23.74;64.55
62600;BME280;48671;48.922;2.346;2023-06-22T08:28:40;101287.56;;;23.85;65.36
62600;BME280;48671;48.922;2.346;2023-06-22T08:31:05;101285.63;;;23.97;64.36
62600;BME280;48671;48.922;2.346;2023-06-22T08:33:30;101295.00;;;23.91;64.39
62600;BME280;48671;48.922;2.346;2023-06-22T08:35:57;101288.28;;;23.97;65.92
62600;BME280;48671;48.922;2.346;2023-06-22T08:38:23;101283.28;;;23.94;64.49
62600;BME280;48671;48.922;2.346;2023-06-22T08:40:48;101294.91;;;24.02;64.76
62600;BME280;48671;48.922;2.346;2023-06-22T08:43:14;101296.00;;;24.00;64.52
62600;BME280;48671;48.922;2.346;2023-06-22T08:45:39;101298.25;;;23.95;64.47
62600;BME280;48671;48.922;2.346;2023-06-22T08:48:05;101291.50;;;23.91;65.73
62600;BME280;48671;48.922;2.346;2023-06-22T08:50:30;101299.59;;;23.89;65.07
62600;BME280;48671;48.922;2.346;2023-06-22T08:52:55;101304.91;;;23.89;65.66
62600;BME280;48671;48.922;2.346;2023-06-22T08:55:21;101291.38;;;23.92;66.12
62600;BME280;48671;48.922;2.346;2023-06-22T08:57:46;101296.94;;;23.89;64.67
62600;BME280;48671;48.922;2.346;2023-06-22T09:00:12;101288.66;;;23.82;65.69
62600;BME280;48671;48.922;2.346;2023-06-22T09:02:42;101297.03;;;23.78;64.78
62600;BME280;48671;48.922;2.346;2023-06-22T09:05:07;101298.72;;;23.79;66.13
62600;BME280;48671;48.922;2.346;2023-06-22T09:07:33;101291.72;;;23.78;65.92
62600;BME280;48671;48.922;2.346;2023-06-22T09:09:59;101296.78;;;23.81;65.58
62600;BME280;48671;48.922;2.346;2023-06-22T09:12:25;101302.19;;;23.79;66.51
62600;BME280;48671;48.922;2.346;2023-06-22T09:14:52;101292.97;;;23.83;64.95
62600;BME280;48671;48.922;2.346;2023-06-22T09:17:17;101287.94;;;23.80;66.21
62600;BME280;48671;48.922;2.346;2023-06-22T09:19:43;101291.84;;;23.76;65.76
62600;BME280;48671;48.922;2.346;2023-06-22T09:22:08;101299.38;;;23.60;65.79
62600;BME280;48671;48.922;2.346;2023-06-22T09:24:33;101294.16;;;23.49;67.39
62600;BME280;48671;48.922;2.346;2023-06-22T09:26:59;101299.22;;;23.52;66.51
62600;BME280;48671;48.922;2.346;2023-06-22T09:29:24;101293.44;;;23.47;67.33
62600;BME280;48671;48.922;2.346;2023-06-22T09:31:50;101297.06;;;23.46;67.12
62600;BME280;48671;48.922;2.346;2023-06-22T09:34:16;101296.56;;;23.52;67.41
62600;BME280;48671;48.922;2.346;2023-06-22T09:36:45;101291.69;;;23.57;67.95
62600;BME280;48671;48.922;2.346;2023-06-22T09:39:11;101304.53;;;23.73;68.66
62600;BME280;48671;48.922;2.346;2023-06-22T09:41:36;101305.69;;;23.80;66.99
62600;BME280;48671;48.922;2.346;2023-06-22T09:44:01;101296.31;;;23.76;67.71
62600;BME280;48671;48.922;2.346;2023-06-22T09:46:27;101308.88;;;23.74;67.32
62600;BME280;48671;48.922;2.346;2023-06-22T09:48:53;101312.03;;;23.68;66.91
62600;BME280;48671;48.922;2.346;2023-06-22T09:51:18;101320.22;;;23.76;66.73
62600;BME280;48671;48.922;2.346;2023-06-22T09:53:45;101320.22;;;23.76;67.34
62600;BME280;48671;48.922;2.346;2023-06-22T09:56:10;101332.84;;;23.83;68.02
62600;BME280;48671;48.922;2.346;2023-06-22T09:58:42;101329.16;;;23.96;67.55
62600;BME280;48671;48.922;2.346;2023-06-22T10:01:07;101340.09;;;24.02;66.48
62600;BME280;48671;48.922;2.346;2023-06-22T10:03:33;101337.06;;;24.07;66.29
62600;BME280;48671;48.922;2.346;2023-06-22T10:05:58;101333.84;;;24.13;66.81
62600;BME280;48671;48.922;2.346;2023-06-22T10:08:23;101324.78;;;24.16;65.99
62600;BME280;48671;48.922;2.346;2023-06-22T10:10:49;101333.00;;;24.13;65.29
62600;BME280;48671;48.922;2.346;2023-06-22T10:13:14;101327.13;;;24.09;64.96
62600;BME280;48671;48.922;2.346;2023-06-22T10:15:40;101328.94;;;24.09;65.11
62600;BME280;48671;48.922;2.346;2023-06-22T10:18:05;101332.59;;;24.08;65.27
62600;BME280;48671;48.922;2.346;2023-06-22T10:20:30;101324.34;;;24.11;64.86
62600;BME280;48671;48.922;2.346;2023-06-22T10:22:56;101325.59;;;24.16;65.00
62600;BME280;48671;48.922;2.346;2023-06-22T10:25:21;101334.19;;;24.20;64.87
62600;BME280;48671;48.922;2.346;2023-06-22T10:27:47;101329.19;;;24.26;65.31
62600;BME280;48671;48.922;2.346;2023-06-22T10:30:13;101343.47;;;24.35;64.57
62600;BME280;48671;48.922;2.346;2023-06-22T10:32:39;101333.28;;;24.40;65.32
62600;BME280;48671;48.922;2.346;2023-06-22T10:35:06;101338.25;;;24.55;65.05
62600;BME280;48671;48.922;2.346;2023-06-22T10:37:31;101341.22;;;24.61;64.15
62600;BME280;48671;48.922;2.346;2023-06-22T10:39:57;101342.50;;;24.67;63.90
62600;BME280;48671;48.922;2.346;2023-06-22T10:42:22;101349.53;;;24.77;64.16
62600;BME280;48671;48.922;2.346;2023-06-22T10:44:47;101354.59;;;24.90;64.41
62600;BME280;48671;48.922;2.346;2023-06-22T10:47:13;101365.72;;;25.05;63.41
62600;BME280;48671;48.922;2.346;2023-06-22T10:49:38;101361.00;;;25.18;62.96
62600;BME280;48671;48.922;2.346;2023-06-22T10:52:06;101366.03;;;25.12;63.83
62600;BME280;48671;48.922;2.346;2023-06-22T10:54:32;101356.09;;;25.23;62.61
62600;BME280;48671;48.922;2.346;2023-06-22T10:56:58;101364.63;;;25.17;61.94
62600;BME280;48671;48.922;2.346;2023-06-22T10:59:24;101375.72;;;25.22;61.57
62600;BME280;48671;48.922;2.346;2023-06-22T11:01:51;101385.00;;;25.38;62.90
62600;BME280;48671;48.922;2.346;2023-06-22T11:04:16;101387.34;;;25.60;61.88
62600;BME280;48671;48.922;2.346;2023-06-22T11:06:42;101403.22;;;25.62;61.24
62600;BME280;48671;48.922;2.346;2023-06-22T11:09:09;101395.06;;;25.63;60.91
62600;BME280;48671;48.922;2.346;2023-06-22T11:11:34;101405.75;;;25.83;61.80
62600;BME280;48671;48.922;2.346;2023-06-22T11:14:00;101412.31;;;26.08;61.28
62600;BME280;48671;48.922;2.346;2023-06-22T11:16:25;101410.16;;;26.31;60.87
62600;BME280;48671;48.922;2.346;2023-06-22T11:18:50;101395.22;;;26.48;59.05
62600;BME280;48671;48.922;2.346;2023-06-22T11:21:15;101402.38;;;26.47;58.97
62600;BME280;48671;48.922;2.346;2023-06-22T11:23:42;101394.66;;;26.44;57.81
62600;BME280;48671;48.922;2.346;2023-06-22T11:26:07;101397.53;;;26.33;58.19
62600;BME280;48671;48.922;2.346;2023-06-22T11:28:33;101406.94;;;26.27;57.85
62600;BME280;48671;48.922;2.346;2023-06-22T11:30:58;101399.06;;;26.26;57.46
62600;BME280;48671;48.922;2.346;2023-06-22T11:33:24;101394.59;;;26.26;57.80
62600;BME280;48671;48.922;2.346;2023-06-22T11:35:49;101406.50;;;26.22;56.68
62600;BME280;48671;48.922;2.346;2023-06-22T11:38:14;101396.75;;;26.13;56.65
62600;BME280;48671;48.922;2.346;2023-06-22T11:40:40;101394.34;;;26.10;56.80
62600;BME280;48671;48.922;2.346;2023-06-22T11:43:05;101400.94;;;26.06;56.53
62600;BME280;48671;48.922;2.346;2023-06-22T11:45:30;101402.50;;;25.99;57.59
62600;BME280;48671;48.922;2.346;2023-06-22T11:47:56;101407.13;;;26.06;57.14
62600;BME280;48671;48.922;2.346;2023-06-22T11:50:21;101398.16;;;26.07;56.62
62600;BME280;48671;48.922;2.346;2023-06-22T11:52:46;101399.53;;;26.11;56.53
62600;BME280;48671;48.922;2.346;2023-06-22T11:55:12;101402.75;;;26.15;56.66
62600;BME280;48671;48.922;2.346;2023-06-22T11:57:39;101405.69;;;26.12;55.84
62600;BME280;48671;48.922;2.346;2023-06-22T12:00:17;101412.47;;;26.06;56.58
62600;BME280;48671;48.922;2.346;2023-06-22T12:02:43;101407.44;;;26.03;56.38
62600;BME280;48671;48.922;2.346;2023-06-22T12:05:10;101408.38;;;26.02;56.28
62600;BME280;48671;48.922;2.346;2023-06-22T12:07:35;101413.03;;;26.10;57.06
62600;BME280;48671;48.922;2.346;2023-06-22T12:10:01;101401.06;;;26.24;55.89
62600;BME280;48671;48.922;2.346;2023-06-22T12:12:27;101401.69;;;26.35;55.18
62600;BME280;48671;48.922;2.346;2023-06-22T12:14:52;101399.28;;;26.42;55.18
62600;BME280;48671;48.922;2.346;2023-06-22T12:17:17;101394.53;;;26.46;54.93
62600;BME280;48671;48.922;2.346;2023-06-22T12:19:43;101420.09;;;26.48;54.37
62600;BME280;48671;48.922;2.346;2023-06-22T12:22:08;101401.81;;;26.53;54.66
62600;BME280;48671;48.922;2.346;2023-06-22T12:24:33;101403.41;;;26.74;54.82
62600;BME280;48671;48.922;2.346;2023-06-22T12:26:58;101409.94;;;26.89;54.13
62600;BME280;48671;48.922;2.346;2023-06-22T12:29:24;101417.16;;;27.06;54.69
62600;BME280;48671;48.922;2.346;2023-06-22T12:31:49;101421.19;;;27.11;54.10
62600;BME280;48671;48.922;2.346;2023-06-22T12:34:14;101415.28;;;27.17;54.42
62600;BME280;48671;48.922;2.346;2023-06-22T12:36:40;101422.81;;;27.31;53.64
62600;BME280;48671;48.922;2.346;2023-06-22T12:39:05;101428.75;;;27.43;53.97
62600;BME280;48671;48.922;2.346;2023-06-22T12:41:30;101430.69;;;27.50;52.61
62600;BME280;48671;48.922;2.346;2023-06-22T12:43:56;101439.75;;;27.58;52.32
62600;BME280;48671;48.922;2.346;2023-06-22T12:46:21;101437.84;;;27.68;52.92
62600;BME280;48671;48.922;2.346;2023-06-22T12:48:46;101438.19;;;27.73;52.08